Time;durP1;ratioP1;P1;durP2;ratioP2;P2;SDS_P1;SDS_P2;PMS_P1;PMS_P2;Temp;Humidity;BMP_temperature;BMP_pressure;BME280_temperature;BME280_humidity;BME280_pressure;Samples;Min_cycle;Max_cycle;Signal;HPM_P1;HPM_P2
2023/09/11 00:00:47;;;;;;;;;25.00;24.25;;;;;32.71;94.84;100795.88;2113704;27;46322;-60
2023/09/11 00:01:48;;;;;;;;;22.50;22.50;;;;;32.70;95.33;100794.16;2113260;27;45466;-58
2023/09/11 00:02:48;;;;;;;;;20.75;20.75;;;;;32.69;94.97;100797.94;2114218;27;46364;-61
2023/09/11 00:03:49;;;;;;;;;19.75;17.25;;;;;32.65;94.76;100791.03;2113863;27;46570;-62
2023/09/11 00:04:50;;;;;;;;;22.60;22.20;;;;;32.66;95.08;100793.66;2113896;27;47129;-62
2023/09/11 00:05:50;;;;;;;;;19.75;18.50;;;;;32.61;95.54;100793.28;2114280;27;46705;-61
2023/09/11 00:06:51;;;;;;;;;15.25;15.25;;;;;32.59;95.87;100797.25;2113826;27;46344;-63
2023/09/11 00:07:51;;;;;;;;;20.50;20.50;;;;;32.58;95.76;100793.66;2113910;27;46440;-62
2023/09/11 00:08:52;;;;;;;;;28.00;26.50;;;;;32.57;95.89;100788.34;2112130;27;46181;-61
2023/09/11 00:09:52;;;;;;;;;22.20;22.20;;;;;32.55;96.02;100795.91;2113909;27;46475;-61
2023/09/11 00:10:52;;;;;;;;;25.25;23.75;;;;;32.54;96.08;100786.81;2113877;27;46347;-62
2023/09/11 00:11:53;;;;;;;;;24.25;24.25;;;;;32.54;96.12;100785.94;2113200;27;46289;-60
2023/09/11 00:12:53;;;;;;;;;23.25;22.00;;;;;32.54;96.11;100796.94;2113673;27;46266;-61
2023/09/11 00:13:53;;;;;;;;;24.75;22.50;;;;;32.50;96.43;100785.41;2112073;27;46670;-61
2023/09/11 00:14:54;;;;;;;;;22.00;21.25;;;;;32.46;96.64;100795.03;2118029;27;46127;-59
2023/09/11 00:15:54;;;;;;;;;23.25;22.50;;;;;32.48;96.22;100799.31;2119790;27;46168;-61
2023/09/11 00:16:54;;;;;;;;;27.00;25.25;;;;;32.46;96.19;100793.16;2121755;27;46515;-60
2023/09/11 00:17:55;;;;;;;;;17.00;16.75;;;;;32.47;96.33;100785.75;2112091;27;46467;-61
2023/09/11 00:18:56;;;;;;;;;25.00;25.00;;;;;32.44;96.30;100786.13;2113205;27;46358;-60
2023/09/11 00:19:56;;;;;;;;;22.50;21.00;;;;;32.52;96.15;100796.22;2120863;27;46691;-61
2023/09/11 00:20:56;;;;;;;;;19.00;19.00;;;;;32.52;96.15;100793.47;2121344;27;47058;-60
2023/09/11 00:21:57;;;;;;;;;21.50;20.75;;;;;32.52;95.76;100785.22;2122354;27;46412;-60
2023/09/11 00:22:57;;;;;;;;;22.50;21.25;;;;;32.50;95.84;100779.91;2121735;27;45863;-61
2023/09/11 00:23:57;;;;;;;;;22.25;22.25;;;;;32.51;95.65;100784.38;2121469;27;46831;-60
2023/09/11 00:24:58;;;;;;;;;22.50;21.75;;;;;32.51;95.82;100787.13;2119978;27;46633;-61
2023/09/11 00:25:58;;;;;;;;;22.25;22.25;;;;;32.50;95.73;100789.00;2120845;27;46182;-61
2023/09/11 00:26:58;;;;;;;;;23.00;21.50;;;;;32.49;94.93;100784.56;2112416;27;46695;-60
2023/09/11 00:27:59;;;;;;;;;23.25;23.00;;;;;32.48;95.44;100782.84;2111813;27;46310;-60
2023/09/11 00:28:59;;;;;;;;;18.25;18.00;;;;;32.49;95.36;100789.19;2122157;27;46461;-60
2023/09/11 00:29:59;;;;;;;;;20.00;19.25;;;;;32.47;95.14;100791.25;2118106;27;46532;-62
2023/09/11 00:31:00;;;;;;;;;20.00;20.00;;;;;32.45;95.16;100790.59;2107018;27;46109;-62
2023/09/11 00:32:00;;;;;;;;;19.75;19.75;;;;;32.44;94.78;100792.47;2113117;27;46253;-63
2023/09/11 00:33:01;;;;;;;;;18.50;17.00;;;;;32.42;94.99;100790.94;2121195;27;47149;-60
2023/09/11 00:34:01;;;;;;;;;20.50;20.50;;;;;32.41;95.29;100795.56;2114504;27;46775;-60
2023/09/11 00:35:02;;;;;;;;;20.50;18.50;;;;;32.41;95.41;100791.97;2112568;27;47121;-61
2023/09/11 00:36:02;;;;;;;;;20.00;20.00;;;;;32.39;95.33;100797.59;2113008;27;46663;-60
2023/09/11 00:37:02;;;;;;;;;18.00;18.00;;;;;32.36;95.67;100792.47;2122076;27;46104;-61
2023/09/11 00:38:03;;;;;;;;;21.50;20.50;;;;;32.28;95.93;100789.75;2122332;27;46718;-61
2023/09/11 00:39:04;;;;;;;;;19.50;19.50;;;;;32.27;96.19;100787.13;2121830;27;45902;-61
2023/09/11 00:40:05;;;;;;;;;18.25;18.25;;;;;32.25;96.72;100787.28;2121754;27;46583;-61
2023/09/11 00:41:05;;;;;;;;;18.80;18.80;;;;;32.31;97.36;100785.78;2114467;27;46682;-61
2023/09/11 00:42:06;;;;;;;;;20.75;18.75;;;;;32.36;96.74;100789.72;2121190;27;47095;-61
2023/09/11 00:43:06;;;;;;;;;19.75;19.75;;;;;32.38;96.51;100789.53;2116572;27;46393;-62
2023/09/11 00:44:06;;;;;;;;;17.00;17.00;;;;;32.38;96.43;100786.81;2114840;27;46360;-62
2023/09/11 00:45:07;;;;;;;;;18.00;18.00;;;;;32.33;96.51;100787.31;2121944;27;46632;-62
2023/09/11 00:46:08;;;;;;;;;17.25;17.25;;;;;32.32;96.67;100787.50;2120867;27;46983;-62
2023/09/11 00:47:09;;;;;;;;;19.25;18.00;;;;;32.31;97.21;100783.03;2118292;27;45878;-61
2023/09/11 00:48:11;;;;;;;;;18.00;18.00;;;;;32.26;97.21;100786.25;2122475;27;47080;-62
2023/09/11 00:49:11;;;;;;;;;17.00;17.00;;;;;32.24;97.19;100785.56;2122276;27;46766;-61
2023/09/11 00:50:16;;;;;;;;;17.25;16.75;;;;;32.23;97.53;100789.34;2116861;27;46407;-59
2023/09/11 00:51:16;;;;;;;;;19.60;18.80;;;;;32.20;97.83;100778.72;2112197;27;46887;-61
2023/09/11 00:52:17;;;;;;;;;19.50;19.25;;;;;32.19;97.96;100782.50;2109617;27;46656;-60
2023/09/11 00:53:20;;;;;;;;;22.75;22.75;;;;;32.18;97.68;100781.66;2113511;27;45998;-63
2023/09/11 00:54:21;;;;;;;;;20.20;20.00;;;;;32.14;98.28;100774.78;2111852;27;46738;-60
2023/09/11 00:55:22;;;;;;;;;20.40;18.60;;;;;32.18;98.28;100776.16;2113162;27;46758;-61
2023/09/11 00:56:23;;;;;;;;;18.80;18.80;;;;;32.18;98.25;100775.28;2123048;27;45653;-61
2023/09/11 00:57:23;;;;;;;;;17.00;17.00;;;;;32.17;97.60;100774.44;2121393;27;46610;-62
2023/09/11 00:58:24;;;;;;;;;18.50;18.50;;;;;32.17;97.95;100784.56;2121807;27;46534;-61
2023/09/11 00:59:25;;;;;;;;;19.00;19.00;;;;;32.17;97.80;100784.56;2122007;27;46192;-60
2023/09/11 01:00:25;;;;;;;;;20.25;19.50;;;;;32.15;98.31;100772.91;2122399;27;46583;-61
2023/09/11 01:01:26;;;;;;;;;18.00;18.00;;;;;32.13;98.06;100772.19;2121951;27;46320;-61
2023/09/11 01:02:27;;;;;;;;;17.75;17.75;;;;;32.11;98.33;100768.75;2121826;27;46879;-61
2023/09/11 01:03:27;;;;;;;;;20.00;20.00;;;;;32.11;98.45;100768.75;2122538;27;45218;-61
2023/09/11 01:04:28;;;;;;;;;19.50;19.50;;;;;32.06;98.38;100772.03;2122273;27;46909;-61
2023/09/11 01:05:29;;;;;;;;;16.00;16.00;;;;;32.08;99.03;100775.47;2121835;27;46676;-61
2023/09/11 01:06:29;;;;;;;;;18.00;17.40;;;;;32.08;99.25;100772.72;2122826;27;46238;-62
2023/09/11 01:07:31;;;;;;;;;16.50;16.50;;;;;32.05;98.63;100767.56;2120029;27;46579;-61
2023/09/11 01:08:32;;;;;;;;;19.40;19.40;;;;;32.06;98.72;100760.19;2120810;27;47039;-61
2023/09/11 01:09:33;;;;;;;;;21.25;17.75;;;;;32.05;98.70;100770.31;2121166;27;46556;-63
2023/09/11 01:10:34;;;;;;;;;17.60;17.60;;;;;32.05;99.22;100774.94;2112140;27;46868;-60
2023/09/11 01:11:35;;;;;;;;;17.60;17.60;;;;;32.02;98.59;100769.81;2112989;27;46342;-61
2023/09/11 01:12:37;;;;;;;;;18.75;18.75;;;;;32.02;99.11;100775.31;2122405;27;46457;-62
2023/09/11 01:13:38;;;;;;;;;19.40;19.40;;;;;32.01;98.64;100771.66;2112933;27;47130;-61
2023/09/11 01:14:39;;;;;;;;;19.50;19.50;;;;;32.02;98.86;100775.31;2104651;28;46720;-63
2023/09/11 01:16:00;;;;;;;;;17.40;17.40;;;;;31.96;99.34;100770.47;2113122;27;46825;-61
2023/09/11 01:17:11;;;;;;;;;19.80;18.60;;;;;31.94;99.28;100773.41;2120061;27;46688;-62
2023/09/11 01:18:19;;;;;;;;;18.80;18.40;;;;;31.93;99.12;100774.44;2119124;27;46973;-61
2023/09/11 01:20:06;;;;;;;;;16.40;15.80;;;;;31.94;99.62;100769.78;2122068;27;47062;-62
2023/09/11 01:21:20;;;;;;;;;19.40;16.40;;;;;31.92;99.21;100767.22;2121880;27;46778;-62
2023/09/11 01:22:45;;;;;;;;;17.80;17.80;;;;;31.91;99.52;100774.59;2120664;27;46186;-61
2023/09/11 01:23:49;;;;;;;;;19.40;17.80;;;;;31.89;99.57;100770.31;2117481;27;46819;-60
2023/09/11 01:25:08;;;;;;;;;17.60;17.60;;;;;31.89;99.22;100771.19;2117173;27;46744;-62
2023/09/11 01:26:31;;;;;;;;;21.40;19.60;;;;;31.88;99.39;100768.56;2119685;27;47086;-61
2023/09/11 01:27:47;;;;;;;;;19.00;18.80;;;;;31.87;99.73;100761.38;2121293;27;46701;-62
2023/09/11 01:29:07;;;;;;;;;17.40;17.40;;;;;31.86;99.56;100763.25;2113502;27;47004;-62
2023/09/11 01:30:08;;;;;;;;;18.00;18.00;;;;;31.83;98.98;100760.84;2113247;27;46414;-61
2023/09/11 01:31:09;;;;;;;;;17.40;17.40;;;;;31.83;99.18;100765.50;2120830;27;47107;-60
2023/09/11 01:32:10;;;;;;;;;19.80;19.60;;;;;31.84;99.56;100762.56;2114534;27;46426;-61
2023/09/11 01:33:12;;;;;;;;;20.80;19.00;;;;;31.82;100.00;100767.38;2120892;27;46566;-63
2023/09/11 01:34:13;;;;;;;;;17.40;17.40;;;;;31.81;100.00;100762.91;2122766;27;46259;-62
2023/09/11 01:35:13;;;;;;;;;16.75;16.75;;;;;31.81;100.00;100765.66;2122198;27;47184;-63
2023/09/11 01:36:13;;;;;;;;;18.75;16.75;;;;;31.80;100.00;100763.09;2122229;27;46269;-62
2023/09/11 01:37:14;;;;;;;;;17.50;17.50;;;;;31.80;99.89;100769.44;2112584;27;46310;-62
2023/09/11 01:38:14;;;;;;;;;17.25;17.25;;;;;31.79;99.76;100762.25;2112972;27;46800;-62
2023/09/11 01:39:15;;;;;;;;;15.50;15.00;;;;;31.77;99.84;100764.31;2122073;27;45664;-61
2023/09/11 01:40:16;;;;;;;;;20.60;20.00;;;;;31.77;99.84;100768.94;2121406;27;46728;-62
2023/09/11 01:41:18;;;;;;;;;19.50;18.50;;;;;31.74;99.47;100769.25;2119874;27;46993;-62
2023/09/11 01:42:25;;;;;;;;;16.20;16.20;;;;;31.75;99.69;100776.44;2120689;27;46978;-62
2023/09/11 01:43:31;;;;;;;;;19.00;19.00;;;;;31.75;99.92;100774.56;2122084;27;46478;-62
2023/09/11 01:44:43;;;;;;;;;18.60;16.80;;;;;31.77;99.08;100780.75;2120790;27;47133;-62
2023/09/11 01:45:44;;;;;;;;;19.00;18.40;;;;;31.75;100.00;100784.69;2121741;27;46749;-59
2023/09/11 01:46:47;;;;;;;;;20.00;20.00;;;;;31.73;99.45;100775.72;2121954;27;45939;-60
2023/09/11 01:47:51;;;;;;;;;18.00;18.00;;;;;31.74;99.51;100780.22;2110236;27;46893;-58
2023/09/11 01:48:53;;;;;;;;;15.80;15.00;;;;;31.73;100.00;100775.72;2112083;27;46517;-62
2023/09/11 01:49:56;;;;;;;;;19.00;19.00;;;;;31.72;99.27;100774.00;2122029;27;46475;-62
2023/09/11 01:50:57;;;;;;;;;19.80;19.40;;;;;31.71;99.18;100775.03;2121074;27;46770;-61
2023/09/11 01:51:59;;;;;;;;;21.20;18.60;;;;;31.70;100.00;100776.06;2122379;27;45651;-62
2023/09/11 01:52:59;;;;;;;;;18.00;18.00;;;;;31.67;99.84;100769.03;2121090;27;46409;-62
2023/09/11 01:54:01;;;;;;;;;17.75;17.75;;;;;31.65;99.87;100776.59;2121887;27;46492;-60
2023/09/11 01:55:02;;;;;;;;;18.60;18.60;;;;;31.66;99.86;100774.69;2114717;27;46477;-61
2023/09/11 01:56:03;;;;;;;;;19.40;18.60;;;;;31.63;99.47;100786.84;2115052;27;46934;-61
2023/09/11 01:57:05;;;;;;;;;22.60;20.20;;;;;31.60;99.94;100779.81;2121887;27;45398;-61
2023/09/11 01:58:05;;;;;;;;;23.40;23.40;;;;;31.58;100.00;100787.38;2121602;27;46604;-61
2023/09/11 01:59:06;;;;;;;;;16.75;16.75;;;;;31.59;100.00;100778.09;2112329;27;46319;-61
2023/09/11 02:00:08;;;;;;;;;19.00;19.00;;;;;31.55;100.00;100782.22;2109809;27;46954;-62
2023/09/11 02:01:08;;;;;;;;;23.60;22.60;;;;;31.55;99.63;100781.38;2092969;28;46519;-61
2023/09/11 02:02:08;;;;;;;;;19.50;19.50;;;;;31.55;100.00;100787.72;2095424;28;46652;-62
2023/09/11 02:03:10;;;;;;;;;19.25;19.25;;;;;31.54;100.00;100785.13;2121631;27;46585;-61
2023/09/11 02:04:10;;;;;;;;;17.80;17.80;;;;;31.53;100.00;100780.69;2121410;27;46772;-61
2023/09/11 02:05:10;;;;;;;;;17.75;17.75;;;;;31.53;99.87;100778.78;2122460;27;46557;-61
2023/09/11 02:06:11;;;;;;;;;17.75;17.75;;;;;31.52;99.64;100781.72;2122249;27;45619;-61
2023/09/11 02:07:11;;;;;;;;;14.00;14.00;;;;;31.54;100.00;100777.75;2121598;27;46220;-62
2023/09/11 02:08:11;;;;;;;;;18.50;18.50;;;;;31.55;100.00;100776.72;2122084;27;46247;-62
2023/09/11 02:09:12;;;;;;;;;23.00;20.50;;;;;31.57;100.00;100782.06;2121694;27;46091;-61
2023/09/11 02:10:12;;;;;;;;;18.50;18.50;;;;;31.55;99.81;100781.38;2121721;27;45990;-61
2023/09/11 02:11:12;;;;;;;;;20.00;20.00;;;;;31.52;99.88;100779.81;2121138;27;46713;-62
2023/09/11 02:12:13;;;;;;;;;17.00;17.00;;;;;31.52;99.70;100781.72;2121989;27;46612;-63
2023/09/11 02:13:14;;;;;;;;;17.00;16.75;;;;;31.48;99.78;100777.56;2121655;27;46484;-61
2023/09/11 02:14:14;;;;;;;;;22.80;21.60;;;;;31.48;99.24;100791.28;2121021;27;46713;-63
2023/09/11 02:15:15;;;;;;;;;17.50;17.00;;;;;31.47;99.34;100790.41;2121767;27;46240;-61
2023/09/11 02:16:15;;;;;;;;;17.75;17.50;;;;;31.45;99.43;100786.97;2121999;27;46497;-61
2023/09/11 02:17:15;;;;;;;;;19.50;18.75;;;;;31.43;99.46;100786.31;2121073;27;45659;-62
2023/09/11 02:18:16;;;;;;;;;21.25;20.50;;;;;31.41;99.48;100788.34;2121909;27;46165;-60
2023/09/11 02:19:16;;;;;;;;;19.25;18.75;;;;;31.41;99.43;100782.00;2121490;27;46735;-62
2023/09/11 02:20:16;;;;;;;;;17.75;17.75;;;;;31.40;99.17;100786.63;2121496;27;46241;-62
2023/09/11 02:21:17;;;;;;;;;19.75;18.25;;;;;31.38;99.48;100783.22;2120253;27;46422;-61
2023/09/11 02:22:17;;;;;;;;;20.75;20.25;;;;;31.37;99.21;100786.09;2112495;27;46686;-61
2023/09/11 02:23:18;;;;;;;;;16.00;16.00;;;;;31.36;99.46;100778.91;2112833;27;46296;-61
2023/09/11 02:24:18;;;;;;;;;19.25;19.25;;;;;31.33;99.38;100777.34;2116577;27;46895;-62
2023/09/11 02:25:18;;;;;;;;;18.75;18.75;;;;;31.29;98.96;100770.50;2118331;27;46607;-61
2023/09/11 02:26:19;;;;;;;;;21.50;18.25;;;;;31.28;99.93;100782.47;2112613;27;46139;-61
2023/09/11 02:27:19;;;;;;;;;20.25;19.00;;;;;31.24;99.68;100772.84;2112433;27;46701;-61
2023/09/11 02:28:20;;;;;;;;;18.00;17.00;;;;;31.24;99.37;100772.84;2120098;27;46716;-61
2023/09/11 02:29:20;;;;;;;;;19.25;19.00;;;;;31.23;99.41;100771.13;2115571;27;46350;-62
2023/09/11 02:30:20;;;;;;;;;20.50;18.50;;;;;31.22;99.10;100777.66;2121645;27;46254;-62
2023/09/11 02:31:21;;;;;;;;;23.25;23.25;;;;;31.20;99.12;100775.06;2113120;27;46270;-63
2023/09/11 02:32:21;;;;;;;;;21.00;21.00;;;;;31.19;99.84;100770.63;2112057;27;46914;-60
2023/09/11 02:33:21;;;;;;;;;20.25;20.25;;;;;31.17;99.86;100775.38;2109735;27;46667;-60
2023/09/11 02:34:22;;;;;;;;;16.50;16.50;;;;;31.15;98.84;100768.34;2108514;27;46240;-61
2023/09/11 02:35:22;;;;;;;;;16.25;15.75;;;;;31.13;99.20;100770.38;2122030;27;45679;-62
2023/09/11 02:36:22;;;;;;;;;15.00;14.00;;;;;31.12;99.59;100775.00;2117022;27;46445;-61
2023/09/11 02:37:23;;;;;;;;;20.75;18.00;;;;;31.11;99.20;100775.16;2121473;27;46834;-61
2023/09/11 02:38:23;;;;;;;;;20.25;20.25;;;;;31.11;99.14;100770.53;2122166;27;46603;-61
2023/09/11 02:39:24;;;;;;;;;18.25;18.25;;;;;31.09;99.79;100771.72;2121718;27;46744;-62
2023/09/11 02:40:24;;;;;;;;;19.50;19.00;;;;;31.05;99.25;100777.56;2121629;27;46842;-61
2023/09/11 02:41:24;;;;;;;;;18.00;17.50;;;;;31.05;99.17;100771.22;2120636;27;46609;-61
2023/09/11 02:42:25;;;;;;;;;19.50;18.75;;;;;31.02;99.63;100771.56;2121868;27;46197;-61
2023/09/11 02:43:25;;;;;;;;;18.75;16.75;;;;;31.03;99.18;100767.78;2121775;27;46818;-61
2023/09/11 02:44:25;;;;;;;;;21.75;20.75;;;;;31.01;100.00;100765.22;2121405;27;46671;-61
2023/09/11 02:45:26;;;;;;;;;18.25;18.25;;;;;31.01;99.53;100776.19;2121795;27;46330;-61
2023/09/11 02:46:26;;;;;;;;;18.75;18.75;;;;;31.03;99.97;100778.75;2122139;27;46768;-61
2023/09/11 02:47:27;;;;;;;;;20.00;20.00;;;;;31.00;99.45;100774.47;2103160;28;46122;-61
2023/09/11 02:48:27;;;;;;;;;18.00;17.50;;;;;30.95;99.38;100775.94;2103886;28;46532;-62
2023/09/11 02:49:27;;;;;;;;;17.50;17.50;;;;;30.96;100.00;100772.19;2106153;27;46917;-62
2023/09/11 02:50:28;;;;;;;;;19.75;18.50;;;;;30.98;100.00;100772.88;2109640;27;46876;-61
2023/09/11 02:51:28;;;;;;;;;20.25;18.50;;;;;30.96;99.06;100773.03;2121187;27;45853;-62
2023/09/11 02:52:28;;;;;;;;;19.50;18.75;;;;;30.96;99.46;100772.19;2121487;27;46362;-62
2023/09/11 02:53:29;;;;;;;;;19.75;19.50;;;;;30.95;99.19;100770.47;2122762;27;46687;-61
2023/09/11 02:54:29;;;;;;;;;19.50;18.25;;;;;30.98;99.11;100773.75;2123121;27;46197;-60
2023/09/11 02:55:29;;;;;;;;;18.00;17.25;;;;;30.90;99.52;100767.38;2123231;27;46368;-60
2023/09/11 02:56:30;;;;;;;;;20.25;20.25;;;;;30.90;100.00;100762.75;2122969;27;47255;-61
2023/09/11 02:57:30;;;;;;;;;21.00;20.25;;;;;30.90;99.54;100759.16;2122776;27;46577;-61
2023/09/11 02:58:30;;;;;;;;;21.25;20.75;;;;;30.90;100.00;100764.63;2123373;27;45740;-62
2023/09/11 02:59:34;;;;;;;;;22.00;22.00;;;;;30.89;99.91;100762.94;2123187;27;46640;-62
2023/09/11 03:00:35;;;;;;;;;18.40;18.20;;;;;30.91;99.77;100769.09;2122100;27;46437;-61
2023/09/11 03:01:36;;;;;;;;;21.40;20.60;;;;;30.91;99.73;100766.34;2114995;27;46936;-61
2023/09/11 03:02:36;;;;;;;;;18.75;18.50;;;;;30.92;99.93;100768.06;2122745;27;46370;-62
2023/09/11 03:03:36;;;;;;;;;21.25;18.75;;;;;30.89;100.00;100761.03;2122946;27;46926;-61
2023/09/11 03:04:37;;;;;;;;;22.00;21.50;;;;;30.88;99.95;100759.31;2123152;27;45937;-61
2023/09/11 03:05:37;;;;;;;;;17.50;17.50;;;;;30.89;99.62;100766.53;2113892;27;46758;-62
2023/09/11 03:06:37;;;;;;;;;19.25;18.00;;;;;30.89;100.00;100763.78;2113678;27;46527;-62
2023/09/11 03:07:38;;;;;;;;;16.50;16.50;;;;;30.86;99.94;100761.34;2122935;27;46228;-60
2023/09/11 03:08:38;;;;;;;;;19.25;19.00;;;;;30.87;100.00;100765.78;2122379;27;46872;-61
2023/09/11 03:09:38;;;;;;;;;18.25;18.25;;;;;30.87;99.91;100762.19;2122442;27;46292;-62
2023/09/11 03:10:39;;;;;;;;;17.25;17.25;;;;;30.92;99.46;100760.72;2104000;28;46569;-62
2023/09/11 03:11:39;;;;;;;;;19.75;19.75;;;;;30.95;99.17;100762.25;2104525;28;46461;-62
2023/09/11 03:12:39;;;;;;;;;21.00;19.50;;;;;30.95;98.84;100759.50;2104976;28;46277;-61
2023/09/11 03:13:40;;;;;;;;;19.00;18.75;;;;;30.93;98.52;100765.16;2105177;28;46307;-62
2023/09/11 03:14:40;;;;;;;;;18.75;18.25;;;;;30.93;98.92;100753.34;2096208;28;46187;-57
2023/09/11 03:15:42;;;;;;;;;20.00;19.50;;;;;30.92;98.79;100759.84;2075332;28;46911;-61
2023/09/11 03:16:43;;;;;;;;;17.60;17.60;;;;;30.89;98.46;100755.56;2088260;28;46870;-60
2023/09/11 03:17:48;;;;;;;;;18.25;18.25;;;;;30.90;99.03;100756.41;2104640;28;46492;-60
2023/09/11 03:18:49;;;;;;;;;18.80;18.80;;;;;30.88;99.29;100751.09;2105256;28;46723;-58
2023/09/11 03:19:50;;;;;;;;;14.00;14.00;;;;;30.88;98.48;100745.63;2104272;28;46452;-61
2023/09/11 03:20:54;;;;;;;;;19.40;18.20;;;;;30.88;98.96;100742.88;2102464;28;46623;-61
2023/09/11 03:21:54;;;;;;;;;19.20;18.20;;;;;30.85;99.39;100740.44;2096080;28;46532;-62
2023/09/11 03:22:55;;;;;;;;;18.75;18.75;;;;;30.84;98.55;100743.34;2096232;28;45829;-61
2023/09/11 03:23:55;;;;;;;;;17.00;16.25;;;;;30.82;98.77;100738.03;2100869;27;46724;-59
2023/09/11 03:24:55;;;;;;;;;19.25;19.25;;;;;30.82;98.85;100737.19;2096395;28;46572;-62
2023/09/11 03:25:56;;;;;;;;;16.50;16.50;;;;;30.81;99.05;100733.59;2096359;28;46371;-62
2023/09/11 03:26:56;;;;;;;;;18.50;17.75;;;;;30.81;99.06;100733.59;2095934;28;46547;-59
2023/09/11 03:27:56;;;;;;;;;18.00;17.25;;;;;30.71;98.92;100724.63;2096307;28;47271;-61
2023/09/11 03:28:56;;;;;;;;;16.00;16.00;;;;;30.71;99.62;100733.69;2104197;27;46485;-59
2023/09/11 03:29:57;;;;;;;;;22.00;21.00;;;;;30.71;99.61;100727.38;2104030;28;46433;-61
2023/09/11 03:31:02;;;;;;;;;19.50;19.50;;;;;30.74;99.64;100727.88;2104033;28;46425;-63
2023/09/11 03:32:03;;;;;;;;;19.40;19.00;;;;;30.75;99.22;100723.28;2102730;28;46278;-62
2023/09/11 03:33:03;;;;;;;;;19.00;19.00;;;;;30.74;98.89;100727.88;2104440;27;46097;-61
2023/09/11 03:34:03;;;;;;;;;16.00;16.00;;;;;30.76;99.02;100722.28;2104399;27;46376;-61
2023/09/11 03:35:04;;;;;;;;;20.75;19.50;;;;;30.76;98.82;100722.28;2095638;28;46430;-61
2023/09/11 03:36:05;;;;;;;;;18.50;17.00;;;;;30.74;99.16;100716.06;2078507;28;46745;-61
2023/09/11 03:37:05;;;;;;;;;19.75;19.75;;;;;30.69;98.97;100715.72;2078740;28;46221;-61
2023/09/11 03:38:05;;;;;;;;;17.50;16.50;;;;;30.63;100.00;100714.50;2099595;28;45963;-62
2023/09/11 03:39:06;;;;;;;;;19.50;18.25;;;;;30.63;100.00;100719.13;2105017;28;46661;-62
2023/09/11 03:40:07;;;;;;;;;16.75;16.75;;;;;30.63;100.00;100721.88;2103746;27;46214;-62
2023/09/11 03:41:07;;;;;;;;;21.00;19.20;;;;;30.61;99.93;100721.97;2103584;27;46630;-62
2023/09/11 03:42:08;;;;;;;;;18.75;18.50;;;;;30.59;100.00;100724.00;2109391;27;45611;-62
2023/09/11 03:43:08;;;;;;;;;14.25;14.25;;;;;30.58;99.59;100718.69;2123484;27;46053;-61
2023/09/11 03:44:08;;;;;;;;;17.00;17.00;;;;;30.57;99.70;100722.47;2121186;27;46348;-62
2023/09/11 03:45:09;;;;;;;;;20.00;19.00;;;;;30.54;100.00;100711.84;2122963;27;46569;-62
2023/09/11 03:46:12;;;;;;;;;16.00;16.00;;;;;30.54;99.77;100718.19;2121536;27;46432;-61
2023/09/11 03:47:12;;;;;;;;;19.00;18.40;;;;;30.54;99.77;100709.97;2119933;27;46260;-60
2023/09/11 03:48:13;;;;;;;;;19.50;19.50;;;;;30.55;99.49;100717.16;2120007;27;46813;-61
2023/09/11 03:49:13;;;;;;;;;15.75;15.75;;;;;30.60;99.57;100716.66;2119907;27;46451;-60
2023/09/11 03:50:13;;;;;;;;;17.75;17.75;;;;;30.57;99.92;100714.25;2121610;27;46310;-62
2023/09/11 03:51:14;;;;;;;;;19.00;19.00;;;;;30.54;99.44;100707.22;2122879;27;46388;-62
2023/09/11 03:52:14;;;;;;;;;17.00;16.75;;;;;30.55;100.00;100716.28;2118638;27;46258;-62
2023/09/11 03:53:14;;;;;;;;;17.50;16.75;;;;;30.53;99.59;100707.38;2121899;27;46247;-60
2023/09/11 03:54:15;;;;;;;;;18.00;17.00;;;;;30.52;99.47;100705.66;2122495;27;46799;-62
2023/09/11 03:55:15;;;;;;;;;18.25;16.75;;;;;30.51;99.40;100707.56;2122597;27;46219;-62
2023/09/11 03:56:16;;;;;;;;;14.75;14.75;;;;;30.50;99.76;100700.38;2116635;27;46235;-63
2023/09/11 03:57:16;;;;;;;;;18.00;16.75;;;;;30.52;99.77;100695.56;2111796;27;46794;-62
2023/09/11 03:58:16;;;;;;;;;17.25;17.25;;;;;30.53;99.45;100697.28;2118028;27;46534;-61
2023/09/11 03:59:17;;;;;;;;;16.25;16.25;;;;;30.50;99.12;100694.03;2123032;27;46203;-62
2023/09/11 04:00:17;;;;;;;;;16.50;16.50;;;;;30.54;98.92;100699.00;2120743;27;46031;-60
2023/09/11 04:01:17;;;;;;;;;18.00;18.00;;;;;30.49;98.94;100695.88;2118206;27;46135;-62
2023/09/11 04:02:18;;;;;;;;;16.25;16.25;;;;;30.50;98.49;100700.38;2122640;27;46304;-61
2023/09/11 04:03:18;;;;;;;;;17.25;16.00;;;;;30.47;98.27;100697.94;2120198;27;45685;-62
2023/09/11 04:04:18;;;;;;;;;18.25;18.25;;;;;30.46;98.80;100697.06;2121373;27;46391;-62
2023/09/11 04:05:19;;;;;;;;;18.50;18.50;;;;;30.45;98.10;100697.22;2103806;28;46213;-61
2023/09/11 04:06:22;;;;;;;;;17.00;15.50;;;;;30.47;99.00;100700.66;2104264;28;47175;-61
2023/09/11 04:07:22;;;;;;;;;10.40;10.00;;;;;30.44;98.11;100701.00;2105016;28;46682;-61
2023/09/11 04:08:23;;;;;;;;;16.00;16.00;;;;;30.44;98.48;100706.47;2101189;28;46268;-61
2023/09/11 04:09:23;;;;;;;;;16.25;16.25;;;;;30.43;98.23;100700.13;2100811;28;46303;-61
2023/09/11 04:10:23;;;;;;;;;15.50;15.50;;;;;30.45;98.36;100702.72;2104251;28;45939;-61
2023/09/11 04:11:23;;;;;;;;;17.00;15.75;;;;;30.41;98.65;100699.44;2102498;28;46931;-61
2023/09/11 04:12:24;;;;;;;;;15.50;15.50;;;;;30.43;98.51;100705.63;2101249;28;46590;-62
2023/09/11 04:13:25;;;;;;;;;15.40;15.00;;;;;30.41;98.66;100704.91;2101478;27;46593;-62
2023/09/11 04:14:25;;;;;;;;;16.00;16.00;;;;;30.44;98.49;100699.13;2104653;28;45738;-62
2023/09/11 04:15:25;;;;;;;;;18.50;18.50;;;;;30.42;99.03;100701.16;2099155;28;46604;-60
2023/09/11 04:16:26;;;;;;;;;14.50;14.50;;;;;30.41;98.48;100704.06;2104688;28;46150;-61
2023/09/11 04:17:26;;;;;;;;;16.25;15.50;;;;;30.40;98.47;100699.63;2104158;28;46459;-62
2023/09/11 04:18:26;;;;;;;;;16.50;16.50;;;;;30.42;98.54;100700.31;2102498;28;46449;-58
2023/09/11 04:19:27;;;;;;;;;18.75;18.75;;;;;30.40;98.72;100696.88;2104291;28;46133;-62
2023/09/11 04:20:32;;;;;;;;;16.75;16.50;;;;;30.39;98.61;100696.00;2099888;28;46518;-62
2023/09/11 04:21:33;;;;;;;;;17.00;16.40;;;;;30.41;98.18;100695.84;2100336;28;46484;-62
2023/09/11 04:22:33;;;;;;;;;15.75;15.75;;;;;30.39;98.38;100701.50;2102625;28;46599;-61
2023/09/11 04:23:34;;;;;;;;;20.50;19.25;;;;;30.37;98.60;100694.47;2104207;28;47428;-62
2023/09/11 04:24:34;;;;;;;;;17.75;17.75;;;;;30.41;98.17;100693.09;2100687;28;46202;-62
2023/09/11 04:25:35;;;;;;;;;14.25;14.25;;;;;30.43;98.67;100696.53;2104922;28;46346;-61
2023/09/11 04:26:35;;;;;;;;;16.50;16.00;;;;;30.41;98.24;100684.91;2104134;28;46356;-61
2023/09/11 04:27:35;;;;;;;;;17.75;17.75;;;;;30.39;98.04;100687.81;2098071;28;46153;-61
2023/09/11 04:28:37;;;;;;;;;11.50;11.50;;;;;30.40;98.10;100685.91;2102239;27;46667;-62
2023/09/11 04:29:37;;;;;;;;;17.00;17.00;;;;;30.40;98.11;100680.44;2100571;28;46801;-61
2023/09/11 04:30:38;;;;;;;;;16.00;16.00;;;;;30.39;98.43;100681.47;2104468;28;47073;-62
2023/09/11 04:31:38;;;;;;;;;17.00;17.00;;;;;30.39;98.38;100686.94;2100812;28;47053;-62
2023/09/11 04:32:39;;;;;;;;;17.75;17.75;;;;;30.40;98.60;100684.03;2102071;28;46825;-62
2023/09/11 04:33:39;;;;;;;;;18.75;16.50;;;;;30.39;98.38;100687.81;2104097;28;46317;-62
2023/09/11 04:34:39;;;;;;;;;18.25;17.50;;;;;30.39;98.22;100684.19;2099676;28;46324;-61
2023/09/11 04:35:39;;;;;;;;;17.50;17.00;;;;;30.40;98.13;100684.03;2097004;28;45801;-61
2023/09/11 04:36:40;;;;;;;;;19.50;17.75;;;;;30.39;98.39;100682.31;2102527;27;46610;-63
2023/09/11 04:37:40;;;;;;;;;15.00;15.00;;;;;30.38;98.54;100677.88;2119908;27;46207;-60
2023/09/11 04:38:41;;;;;;;;;19.75;19.50;;;;;30.38;98.78;100680.59;2122380;27;46671;-59
2023/09/11 04:39:41;;;;;;;;;16.25;16.25;;;;;30.39;98.00;100676.00;2122397;27;46660;-60